sensor_id;sensor_type;location;lat;lon;timestamp;temperature;humidity
39951;DHT22;25629;51.444;-2.606;2023-04-25T00:02:00;7.50;51.70
39951;DHT22;25629;51.444;-2.606;2023-04-25T00:04:26;7.50;50.60
39951;DHT22;25629;51.444;-2.606;2023-04-25T00:06:53;7.60;49.00
39951;DHT22;25629;51.444;-2.606;2023-04-25T00:09:19;7.60;44.80
39951;DHT22;25629;51.444;-2.606;2023-04-25T00:11:44;7.60;46.60
39951;DHT22;25629;51.444;-2.606;2023-04-25T00:14:10;7.60;37.40
39951;DHT22;25629;51.444;-2.606;2023-04-25T00:16:36;7.60;35.20
39951;DHT22;25629;51.444;-2.606;2023-04-25T00:19:02;7.60;40.40
39951;DHT22;25629;51.444;-2.606;2023-04-25T00:21:28;7.60;40.30
39951;DHT22;25629;51.444;-2.606;2023-04-25T00:23:54;7.60;41.50
39951;DHT22;25629;51.444;-2.606;2023-04-25T00:26:19;7.50;22.20
39951;DHT22;25629;51.444;-2.606;2023-04-25T00:28:46;7.50;25.00
39951;DHT22;25629;51.444;-2.606;2023-04-25T00:31:12;7.50;25.10
39951;DHT22;25629;51.444;-2.606;2023-04-25T00:33:38;7.60;29.50
39951;DHT22;25629;51.444;-2.606;2023-04-25T00:36:03;7.60;41.00
39951;DHT22;25629;51.444;-2.606;2023-04-25T00:38:29;7.60;35.40
39951;DHT22;25629;51.444;-2.606;2023-04-25T00:40:54;7.60;46.90
39951;DHT22;25629;51.444;-2.606;2023-04-25T00:43:21;7.60;46.20
39951;DHT22;25629;51.444;-2.606;2023-04-25T00:45:46;7.60;51.10
39951;DHT22;25629;51.444;-2.606;2023-04-25T00:48:13;7.70;52.70
39951;DHT22;25629;51.444;-2.606;2023-04-25T00:50:39;7.70;50.40
39951;DHT22;25629;51.444;-2.606;2023-04-25T00:53:04;7.70;54.60
39951;DHT22;25629;51.444;-2.606;2023-04-25T00:55:30;7.70;51.70
39951;DHT22;25629;51.444;-2.606;2023-04-25T00:57:57;7.70;56.20
39951;DHT22;25629;51.444;-2.606;2023-04-25T01:00:22;7.70;56.40
39951;DHT22;25629;51.444;-2.606;2023-04-25T01:02:48;7.70;57.20
39951;DHT22;25629;51.444;-2.606;2023-04-25T01:05:13;7.70;61.10
39951;DHT22;25629;51.444;-2.606;2023-04-25T01:07:39;7.70;65.60
39951;DHT22;25629;51.444;-2.606;2023-04-25T01:10:05;7.70;71.00
39951;DHT22;25629;51.444;-2.606;2023-04-25T01:12:31;7.70;74.50
39951;DHT22;25629;51.444;-2.606;2023-04-25T01:14:57;7.70;75.20
39951;DHT22;25629;51.444;-2.606;2023-04-25T01:17:22;7.70;75.90
39951;DHT22;25629;51.444;-2.606;2023-04-25T01:19:49;7.70;79.90
39951;DHT22;25629;51.444;-2.606;2023-04-25T01:22:16;7.60;79.10
39951;DHT22;25629;51.444;-2.606;2023-04-25T01:24:42;7.60;76.50
39951;DHT22;25629;51.444;-2.606;2023-04-25T01:27:08;7.50;81.70
39951;DHT22;25629;51.444;-2.606;2023-04-25T01:29:36;7.50;77.50
39951;DHT22;25629;51.444;-2.606;2023-04-25T01:32:02;7.50;79.40
39951;DHT22;25629;51.444;-2.606;2023-04-25T01:34:28;7.50;82.10
39951;DHT22;25629;51.444;-2.606;2023-04-25T01:36:54;7.50;80.50
39951;DHT22;25629;51.444;-2.606;2023-04-25T01:39:20;7.40;82.90
39951;DHT22;25629;51.444;-2.606;2023-04-25T01:41:46;7.40;83.80
39951;DHT22;25629;51.444;-2.606;2023-04-25T01:44:12;7.40;83.10
39951;DHT22;25629;51.444;-2.606;2023-04-25T01:46:38;7.40;87.40
39951;DHT22;25629;51.444;-2.606;2023-04-25T01:49:03;7.40;85.90
39951;DHT22;25629;51.444;-2.606;2023-04-25T01:51:29;7.40;80.20
39951;DHT22;25629;51.444;-2.606;2023-04-25T01:53:55;7.40;81.50
39951;DHT22;25629;51.444;-2.606;2023-04-25T01:56:21;7.40;83.40
39951;DHT22;25629;51.444;-2.606;2023-04-25T01:58:47;7.40;81.20
39951;DHT22;25629;51.444;-2.606;2023-04-25T02:01:12;7.30;81.60
39951;DHT22;25629;51.444;-2.606;2023-04-25T02:03:38;7.30;83.90
39951;DHT22;25629;51.444;-2.606;2023-04-25T02:06:04;7.40;86.90
39951;DHT22;25629;51.444;-2.606;2023-04-25T02:08:29;7.30;87.80
39951;DHT22;25629;51.444;-2.606;2023-04-25T02:10:55;7.30;88.40
39951;DHT22;25629;51.444;-2.606;2023-04-25T02:13:21;7.20;91.60
39951;DHT22;25629;51.444;-2.606;2023-04-25T02:15:46;7.30;93.00
39951;DHT22;25629;51.444;-2.606;2023-04-25T02:18:12;7.20;92.80
39951;DHT22;25629;51.444;-2.606;2023-04-25T02:20:37;7.20;93.70
39951;DHT22;25629;51.444;-2.606;2023-04-25T02:23:03;7.20;94.50
39951;DHT22;25629;51.444;-2.606;2023-04-25T02:25:29;7.10;94.70
39951;DHT22;25629;51.444;-2.606;2023-04-25T02:27:54;7.10;95.90
39951;DHT22;25629;51.444;-2.606;2023-04-25T02:30:20;7.10;96.10
39951;DHT22;25629;51.444;-2.606;2023-04-25T02:32:45;7.10;96.50
39951;DHT22;25629;51.444;-2.606;2023-04-25T02:35:11;7.10;96.70
39951;DHT22;25629;51.444;-2.606;2023-04-25T02:37:37;7.00;97.00
39951;DHT22;25629;51.444;-2.606;2023-04-25T02:40:03;6.90;97.80
39951;DHT22;25629;51.444;-2.606;2023-04-25T02:42:29;6.90;98.50
39951;DHT22;25629;51.444;-2.606;2023-04-25T02:44:55;6.90;98.20
39951;DHT22;25629;51.444;-2.606;2023-04-25T02:47:21;6.90;97.10
39951;DHT22;25629;51.444;-2.606;2023-04-25T02:49:46;6.80;96.80
39951;DHT22;25629;51.444;-2.606;2023-04-25T02:52:12;6.70;96.10
39951;DHT22;25629;51.444;-2.606;2023-04-25T02:54:39;6.70;96.60
39951;DHT22;25629;51.444;-2.606;2023-04-25T02:57:05;6.70;96.00
39951;DHT22;25629;51.444;-2.606;2023-04-25T02:59:31;6.60;95.20
39951;DHT22;25629;51.444;-2.606;2023-04-25T03:01:56;6.60;95.20
39951;DHT22;25629;51.444;-2.606;2023-04-25T03:04:22;6.60;95.00
39951;DHT22;25629;51.444;-2.606;2023-04-25T03:06:49;6.50;94.70
39951;DHT22;25629;51.444;-2.606;2023-04-25T03:09:15;6.50;95.40
39951;DHT22;25629;51.444;-2.606;2023-04-25T03:11:40;6.40;94.30
39951;DHT22;25629;51.444;-2.606;2023-04-25T03:14:06;6.40;93.40
39951;DHT22;25629;51.444;-2.606;2023-04-25T03:16:31;6.30;93.50
39951;DHT22;25629;51.444;-2.606;2023-04-25T03:18:57;6.30;92.00
39951;DHT22;25629;51.444;-2.606;2023-04-25T03:21:23;6.20;87.60
39951;DHT22;25629;51.444;-2.606;2023-04-25T03:23:48;6.20;85.40
39951;DHT22;25629;51.444;-2.606;2023-04-25T03:26:14;6.20;85.10
39951;DHT22;25629;51.444;-2.606;2023-04-25T03:28:40;6.10;86.50
39951;DHT22;25629;51.444;-2.606;2023-04-25T03:31:06;6.10;85.40
39951;DHT22;25629;51.444;-2.606;2023-04-25T03:33:32;6.10;80.80
39951;DHT22;25629;51.444;-2.606;2023-04-25T03:35:57;6.00;65.70
39951;DHT22;25629;51.444;-2.606;2023-04-25T03:38:23;6.00;60.30
39951;DHT22;25629;51.444;-2.606;2023-04-25T03:40:49;5.90;42.90
39951;DHT22;25629;51.444;-2.606;2023-04-25T03:43:16;5.90;33.90
39951;DHT22;25629;51.444;-2.606;2023-04-25T03:45:41;5.90;21.40
39951;DHT22;25629;51.444;-2.606;2023-04-25T03:48:07;5.90;8.20
39951;DHT22;25629;51.444;-2.606;2023-04-25T03:50:32;5.80;11.60
39951;DHT22;25629;51.444;-2.606;2023-04-25T03:52:58;5.80;12.20
39951;DHT22;25629;51.444;-2.606;2023-04-25T03:55:24;5.80;19.70
39951;DHT22;25629;51.444;-2.606;2023-04-25T03:57:49;5.80;15.00
39951;DHT22;25629;51.444;-2.606;2023-04-25T04:00:15;5.70;7.60
39951;DHT22;25629;51.444;-2.606;2023-04-25T04:02:40;5.70;14.20
39951;DHT22;25629;51.444;-2.606;2023-04-25T04:05:06;5.70;7.10
39951;DHT22;25629;51.444;-2.606;2023-04-25T04:07:32;5.70;10.40
39951;DHT22;25629;51.444;-2.606;2023-04-25T04:09:58;5.70;17.90
39951;DHT22;25629;51.444;-2.606;2023-04-25T04:12:24;5.70;22.00
39951;DHT22;25629;51.444;-2.606;2023-04-25T04:14:49;5.70;36.30
39951;DHT22;25629;51.444;-2.606;2023-04-25T04:17:15;5.70;45.30
39951;DHT22;25629;51.444;-2.606;2023-04-25T04:19:41;5.70;49.40
39951;DHT22;25629;51.444;-2.606;2023-04-25T04:22:06;5.70;53.20
39951;DHT22;25629;51.444;-2.606;2023-04-25T04:24:32;5.70;58.40
39951;DHT22;25629;51.444;-2.606;2023-04-25T04:26:58;5.70;60.40
39951;DHT22;25629;51.444;-2.606;2023-04-25T04:29:24;5.70;61.60
39951;DHT22;25629;51.444;-2.606;2023-04-25T04:31:50;5.70;64.90
39951;DHT22;25629;51.444;-2.606;2023-04-25T04:34:18;5.60;72.00
39951;DHT22;25629;51.444;-2.606;2023-04-25T04:36:44;5.60;76.30
39951;DHT22;25629;51.444;-2.606;2023-04-25T04:39:11;5.50;76.00
39951;DHT22;25629;51.444;-2.606;2023-04-25T04:41:37;5.60;71.70
39951;DHT22;25629;51.444;-2.606;2023-04-25T04:44:02;5.50;75.40
39951;DHT22;25629;51.444;-2.606;2023-04-25T04:46:28;5.50;82.90
39951;DHT22;25629;51.444;-2.606;2023-04-25T04:48:54;5.40;83.80
39951;DHT22;25629;51.444;-2.606;2023-04-25T04:51:21;5.40;84.30
39951;DHT22;25629;51.444;-2.606;2023-04-25T04:53:47;5.30;86.30
39951;DHT22;25629;51.444;-2.606;2023-04-25T04:56:12;5.30;87.50
39951;DHT22;25629;51.444;-2.606;2023-04-25T04:58:38;5.20;89.80
39951;DHT22;25629;51.444;-2.606;2023-04-25T05:01:03;5.20;91.30
39951;DHT22;25629;51.444;-2.606;2023-04-25T05:03:29;5.20;92.50
39951;DHT22;25629;51.444;-2.606;2023-04-25T05:05:54;5.10;93.30
39951;DHT22;25629;51.444;-2.606;2023-04-25T05:08:20;5.10;93.70
39951;DHT22;25629;51.444;-2.606;2023-04-25T05:10:46;5.10;95.00
39951;DHT22;25629;51.444;-2.606;2023-04-25T05:13:11;5.10;95.50
39951;DHT22;25629;51.444;-2.606;2023-04-25T05:15:37;5.10;95.00
39951;DHT22;25629;51.444;-2.606;2023-04-25T05:18:02;5.10;94.20
39951;DHT22;25629;51.444;-2.606;2023-04-25T05:20:28;5.10;95.40
39951;DHT22;25629;51.444;-2.606;2023-04-25T05:22:53;5.10;94.80
39951;DHT22;25629;51.444;-2.606;2023-04-25T05:25:19;5.10;94.70
39951;DHT22;25629;51.444;-2.606;2023-04-25T05:27:44;5.10;94.70
39951;DHT22;25629;51.444;-2.606;2023-04-25T05:30:10;5.00;94.70
39951;DHT22;25629;51.444;-2.606;2023-04-25T05:32:36;5.00;95.20
39951;DHT22;25629;51.444;-2.606;2023-04-25T05:35:02;5.10;95.70
39951;DHT22;25629;51.444;-2.606;2023-04-25T05:37:28;5.00;95.40
39951;DHT22;25629;51.444;-2.606;2023-04-25T05:39:55;5.00;96.20
39951;DHT22;25629;51.444;-2.606;2023-04-25T05:42:21;5.10;96.50
39951;DHT22;25629;51.444;-2.606;2023-04-25T05:44:47;5.10;97.20
39951;DHT22;25629;51.444;-2.606;2023-04-25T05:47:12;5.10;97.60
39951;DHT22;25629;51.444;-2.606;2023-04-25T05:49:38;5.10;98.20
39951;DHT22;25629;51.444;-2.606;2023-04-25T05:52:03;5.20;98.90
39951;DHT22;25629;51.444;-2.606;2023-04-25T05:54:29;5.20;97.50
39951;DHT22;25629;51.444;-2.606;2023-04-25T05:56:56;5.20;96.80
39951;DHT22;25629;51.444;-2.606;2023-04-25T05:59:21;5.20;95.90
39951;DHT22;25629;51.444;-2.606;2023-04-25T06:01:47;5.30;95.50
39951;DHT22;25629;51.444;-2.606;2023-04-25T06:04:12;5.30;94.70
39951;DHT22;25629;51.444;-2.606;2023-04-25T06:06:38;5.40;94.10
39951;DHT22;25629;51.444;-2.606;2023-04-25T06:09:03;5.40;92.20
39951;DHT22;25629;51.444;-2.606;2023-04-25T06:11:29;5.50;90.30
39951;DHT22;25629;51.444;-2.606;2023-04-25T06:13:55;5.50;88.70
39951;DHT22;25629;51.444;-2.606;2023-04-25T06:16:20;5.60;87.10
39951;DHT22;25629;51.444;-2.606;2023-04-25T06:18:46;5.60;78.70
39951;DHT22;25629;51.444;-2.606;2023-04-25T06:21:11;5.70;70.80
39951;DHT22;25629;51.444;-2.606;2023-04-25T06:23:37;5.70;62.20
39951;DHT22;25629;51.444;-2.606;2023-04-25T06:26:03;5.80;60.00
39951;DHT22;25629;51.444;-2.606;2023-04-25T06:28:28;5.90;60.60
39951;DHT22;25629;51.444;-2.606;2023-04-25T06:30:54;6.00;51.60
39951;DHT22;25629;51.444;-2.606;2023-04-25T06:33:20;6.00;51.40
39951;DHT22;25629;51.444;-2.606;2023-04-25T06:35:46;6.20;50.30
39951;DHT22;25629;51.444;-2.606;2023-04-25T06:38:12;6.20;39.80
39951;DHT22;25629;51.444;-2.606;2023-04-25T06:40:38;6.30;30.10
39951;DHT22;25629;51.444;-2.606;2023-04-25T06:43:03;6.40;8.50
39951;DHT22;25629;51.444;-2.606;2023-04-25T06:45:29;6.40;1.00
39951;DHT22;25629;51.444;-2.606;2023-04-25T06:47:54;6.40;1.00
39951;DHT22;25629;51.444;-2.606;2023-04-25T06:50:20;6.40;1.00
39951;DHT22;25629;51.444;-2.606;2023-04-25T06:52:46;6.50;99.90
39951;DHT22;25629;51.444;-2.606;2023-04-25T06:55:11;6.60;99.90
39951;DHT22;25629;51.444;-2.606;2023-04-25T06:57:37;6.70;99.90
39951;DHT22;25629;51.444;-2.606;2023-04-25T07:00:03;6.80;99.90
39951;DHT22;25629;51.444;-2.606;2023-04-25T07:02:30;6.70;1.00
39951;DHT22;25629;51.444;-2.606;2023-04-25T07:04:56;6.80;99.90
39951;DHT22;25629;51.444;-2.606;2023-04-25T07:07:25;6.80;28.00
39951;DHT22;25629;51.444;-2.606;2023-04-25T07:09:50;6.80;99.90
39951;DHT22;25629;51.444;-2.606;2023-04-25T07:12:16;6.80;6.10
39951;DHT22;25629;51.444;-2.606;2023-04-25T07:14:42;6.80;11.70
39951;DHT22;25629;51.444;-2.606;2023-04-25T07:17:07;6.90;99.90
39951;DHT22;25629;51.444;-2.606;2023-04-25T07:19:33;7.00;99.90
39951;DHT22;25629;51.444;-2.606;2023-04-25T07:21:58;7.20;1.00
39951;DHT22;25629;51.444;-2.606;2023-04-25T07:24:24;7.30;99.90
39951;DHT22;25629;51.444;-2.606;2023-04-25T07:26:49;7.40;99.90
39951;DHT22;25629;51.444;-2.606;2023-04-25T07:29:16;7.50;99.90
39951;DHT22;25629;51.444;-2.606;2023-04-25T07:31:42;7.60;48.50
39951;DHT22;25629;51.444;-2.606;2023-04-25T07:34:07;7.70;99.90
39951;DHT22;25629;51.444;-2.606;2023-04-25T07:36:33;7.70;99.90
39951;DHT22;25629;51.444;-2.606;2023-04-25T07:38:58;7.80;99.90
39951;DHT22;25629;51.444;-2.606;2023-04-25T07:41:24;7.90;99.90
39951;DHT22;25629;51.444;-2.606;2023-04-25T07:43:49;8.10;21.40
39951;DHT22;25629;51.444;-2.606;2023-04-25T07:46:15;8.30;99.90
39951;DHT22;25629;51.444;-2.606;2023-04-25T07:48:40;8.50;99.90
39951;DHT22;25629;51.444;-2.606;2023-04-25T07:51:06;8.70;99.90
39951;DHT22;25629;51.444;-2.606;2023-04-25T07:53:32;8.80;86.70
39951;DHT22;25629;51.444;-2.606;2023-04-25T07:56:00;8.90;51.00
39951;DHT22;25629;51.444;-2.606;2023-04-25T07:58:25;9.00;1.00
39951;DHT22;25629;51.444;-2.606;2023-04-25T08:00:51;9.10;1.00
39951;DHT22;25629;51.444;-2.606;2023-04-25T08:03:16;9.00;99.90
39951;DHT22;25629;51.444;-2.606;2023-04-25T08:05:42;9.20;99.90
39951;DHT22;25629;51.444;-2.606;2023-04-25T08:08:07;9.40;99.90
39951;DHT22;25629;51.444;-2.606;2023-04-25T08:10:33;9.60;99.90
39951;DHT22;25629;51.444;-2.606;2023-04-25T08:12:59;9.80;99.90
39951;DHT22;25629;51.444;-2.606;2023-04-25T08:15:25;9.90;99.90
39951;DHT22;25629;51.444;-2.606;2023-04-25T08:17:50;10.00;99.90
39951;DHT22;25629;51.444;-2.606;2023-04-25T08:20:16;10.20;99.90
39951;DHT22;25629;51.444;-2.606;2023-04-25T08:22:42;10.10;99.90
39951;DHT22;25629;51.444;-2.606;2023-04-25T08:25:07;10.10;99.90
39951;DHT22;25629;51.444;-2.606;2023-04-25T08:27:33;10.20;95.00
39951;DHT22;25629;51.444;-2.606;2023-04-25T08:29:59;10.10;93.30
39951;DHT22;25629;51.444;-2.606;2023-04-25T08:32:24;10.20;78.20
39951;DHT22;25629;51.444;-2.606;2023-04-25T08:34:50;10.30;75.00
39951;DHT22;25629;51.444;-2.606;2023-04-25T08:37:19;10.40;45.90
39951;DHT22;25629;51.444;-2.606;2023-04-25T08:39:45;10.60;28.90
39951;DHT22;25629;51.444;-2.606;2023-04-25T08:42:13;10.80;13.90
39951;DHT22;25629;51.444;-2.606;2023-04-25T08:44:39;10.90;1.00
39951;DHT22;25629;51.444;-2.606;2023-04-25T08:47:05;11.00;1.00
39951;DHT22;25629;51.444;-2.606;2023-04-25T08:49:34;11.20;1.00
39951;DHT22;25629;51.444;-2.606;2023-04-25T08:52:00;11.60;1.00
39951;DHT22;25629;51.444;-2.606;2023-04-25T08:54:29;12.00;1.00
39951;DHT22;25629;51.444;-2.606;2023-04-25T08:56:56;12.10;1.00
39951;DHT22;25629;51.444;-2.606;2023-04-25T08:59:23;12.00;1.00
39951;DHT22;25629;51.444;-2.606;2023-04-25T09:01:49;12.10;1.00
39951;DHT22;25629;51.444;-2.606;2023-04-25T09:04:15;12.00;1.00
39951;DHT22;25629;51.444;-2.606;2023-04-25T09:06:40;12.20;1.00
39951;DHT22;25629;51.444;-2.606;2023-04-25T09:09:07;12.10;1.00
39951;DHT22;25629;51.444;-2.606;2023-04-25T09:11:35;12.20;1.00
39951;DHT22;25629;51.444;-2.606;2023-04-25T09:14:17;12.50;1.00
39951;DHT22;25629;51.444;-2.606;2023-04-25T09:21:56;12.40;1.00
39951;DHT22;25629;51.444;-2.606;2023-04-25T09:24:36;12.40;1.00
39951;DHT22;25629;51.444;-2.606;2023-04-25T09:27:20;12.60;1.00
39951;DHT22;25629;51.444;-2.606;2023-04-25T09:29:55;12.80;1.00
39951;DHT22;25629;51.444;-2.606;2023-04-25T09:32:22;13.10;1.00
39951;DHT22;25629;51.444;-2.606;2023-04-25T09:34:51;13.30;1.00
39951;DHT22;25629;51.444;-2.606;2023-04-25T09:37:18;13.40;1.00
39951;DHT22;25629;51.444;-2.606;2023-04-25T09:39:45;13.70;1.00
39951;DHT22;25629;51.444;-2.606;2023-04-25T09:42:12;13.80;1.00
39951;DHT22;25629;51.444;-2.606;2023-04-25T09:44:41;14.00;1.00
39951;DHT22;25629;51.444;-2.606;2023-04-25T09:47:09;13.90;1.00
39951;DHT22;25629;51.444;-2.606;2023-04-25T09:49:34;13.70;99.90
39951;DHT22;25629;51.444;-2.606;2023-04-25T09:52:03;13.60;99.90
39951;DHT22;25629;51.444;-2.606;2023-04-25T09:54:29;13.80;99.90
39951;DHT22;25629;51.444;-2.606;2023-04-25T09:56:55;14.00;99.90
39951;DHT22;25629;51.444;-2.606;2023-04-25T09:59:21;14.10;99.90
39951;DHT22;25629;51.444;-2.606;2023-04-25T10:01:48;14.30;99.90
39951;DHT22;25629;51.444;-2.606;2023-04-25T10:04:16;14.40;99.90
39951;DHT22;25629;51.444;-2.606;2023-04-25T10:06:44;14.30;99.90
39951;DHT22;25629;51.444;-2.606;2023-04-25T10:09:11;14.30;99.90
39951;DHT22;25629;51.444;-2.606;2023-04-25T10:11:38;14.40;99.90
39951;DHT22;25629;51.444;-2.606;2023-04-25T10:14:03;14.30;99.90
39951;DHT22;25629;51.444;-2.606;2023-04-25T10:16:29;14.40;99.90
39951;DHT22;25629;51.444;-2.606;2023-04-25T10:18:55;14.40;99.90
39951;DHT22;25629;51.444;-2.606;2023-04-25T10:21:21;14.60;99.90
39951;DHT22;25629;51.444;-2.606;2023-04-25T10:23:47;14.70;99.90
39951;DHT22;25629;51.444;-2.606;2023-04-25T10:26:14;14.90;99.90
39951;DHT22;25629;51.444;-2.606;2023-04-25T10:28:55;14.90;99.90
39951;DHT22;25629;51.444;-2.606;2023-04-25T10:31:21;15.00;99.90
39951;DHT22;25629;51.444;-2.606;2023-04-25T10:33:46;15.00;99.90
39951;DHT22;25629;51.444;-2.606;2023-04-25T10:36:23;14.90;99.90
39951;DHT22;25629;51.444;-2.606;2023-04-25T10:38:50;15.20;99.90
39951;DHT22;25629;51.444;-2.606;2023-04-25T10:41:17;15.50;99.90
39951;DHT22;25629;51.444;-2.606;2023-04-25T10:43:44;15.40;99.90
39951;DHT22;25629;51.444;-2.606;2023-04-25T10:48:46;14.80;99.90
39951;DHT22;25629;51.444;-2.606;2023-04-25T10:53:43;15.00;99.90
39951;DHT22;25629;51.444;-2.606;2023-04-25T10:56:16;15.50;99.90
39951;DHT22;25629;51.444;-2.606;2023-04-25T10:58:45;15.70;99.90
39951;DHT22;25629;51.444;-2.606;2023-04-25T11:01:11;15.60;99.90
39951;DHT22;25629;51.444;-2.606;2023-04-25T11:03:41;15.70;99.90
39951;DHT22;25629;51.444;-2.606;2023-04-25T11:06:10;15.50;99.90
39951;DHT22;25629;51.444;-2.606;2023-04-25T11:08:47;14.80;99.90
39951;DHT22;25629;51.444;-2.606;2023-04-25T11:11:13;14.40;99.90
39951;DHT22;25629;51.444;-2.606;2023-04-25T11:13:38;14.70;99.90
39951;DHT22;25629;51.444;-2.606;2023-04-25T11:16:06;15.40;99.90
39951;DHT22;25629;51.444;-2.606;2023-04-25T11:18:32;15.80;99.90
39951;DHT22;25629;51.444;-2.606;2023-04-25T11:20:59;16.20;99.90
39951;DHT22;25629;51.444;-2.606;2023-04-25T11:23:25;16.20;99.90
39951;DHT22;25629;51.444;-2.606;2023-04-25T11:25:52;16.50;99.90
39951;DHT22;25629;51.444;-2.606;2023-04-25T11:28:21;16.90;99.90
39951;DHT22;25629;51.444;-2.606;2023-04-25T11:30:50;17.20;99.90
39951;DHT22;25629;51.444;-2.606;2023-04-25T11:33:16;17.60;99.90
39951;DHT22;25629;51.444;-2.606;2023-04-25T11:35:42;17.60;99.90
39951;DHT22;25629;51.444;-2.606;2023-04-25T11:38:07;17.30;99.90
39951;DHT22;25629;51.444;-2.606;2023-04-25T11:40:35;17.10;99.90
39951;DHT22;25629;51.444;-2.606;2023-04-25T11:43:01;17.10;99.90
39951;DHT22;25629;51.444;-2.606;2023-04-25T11:45:27;16.80;99.90
39951;DHT22;25629;51.444;-2.606;2023-04-25T11:47:53;16.50;99.90
39951;DHT22;25629;51.444;-2.606;2023-04-25T11:50:19;15.90;99.90
39951;DHT22;25629;51.444;-2.606;2023-04-25T11:52:46;15.50;99.90
39951;DHT22;25629;51.444;-2.606;2023-04-25T11:55:18;15.20;99.90
39951;DHT22;25629;51.444;-2.606;2023-04-25T11:57:45;15.60;99.90
39951;DHT22;25629;51.444;-2.606;2023-04-25T12:00:15;16.10;99.90
39951;DHT22;25629;51.444;-2.606;2023-04-25T12:02:43;16.60;99.90
39951;DHT22;25629;51.444;-2.606;2023-04-25T12:05:09;16.70;99.90
39951;DHT22;25629;51.444;-2.606;2023-04-25T12:07:35;16.50;99.90
39951;DHT22;25629;51.444;-2.606;2023-04-25T12:10:08;15.80;99.90
39951;DHT22;25629;51.444;-2.606;2023-04-25T12:12:35;15.30;99.90
39951;DHT22;25629;51.444;-2.606;2023-04-25T12:15:13;14.90;99.90
39951;DHT22;25629;51.444;-2.606;2023-04-25T12:17:41;14.50;99.90
39951;DHT22;25629;51.444;-2.606;2023-04-25T12:20:10;15.10;99.90
39951;DHT22;25629;51.444;-2.606;2023-04-25T12:22:36;15.80;99.90
39951;DHT22;25629;51.444;-2.606;2023-04-25T12:25:03;16.50;99.90
39951;DHT22;25629;51.444;-2.606;2023-04-25T12:27:30;17.10;99.90
39951;DHT22;25629;51.444;-2.606;2023-04-25T12:29:57;16.80;99.90
39951;DHT22;25629;51.444;-2.606;2023-04-25T12:32:23;16.30;99.90
39951;DHT22;25629;51.444;-2.606;2023-04-25T12:34:48;16.30;99.90
39951;DHT22;25629;51.444;-2.606;2023-04-25T12:37:14;16.00;99.90
39951;DHT22;25629;51.444;-2.606;2023-04-25T12:39:40;15.30;99.90
39951;DHT22;25629;51.444;-2.606;2023-04-25T12:42:05;15.10;99.90
39951;DHT22;25629;51.444;-2.606;2023-04-25T12:44:33;15.10;99.90
39951;DHT22;25629;51.444;-2.606;2023-04-25T12:46:59;15.00;99.90
39951;DHT22;25629;51.444;-2.606;2023-04-25T12:49:25;14.90;99.90
39951;DHT22;25629;51.444;-2.606;2023-04-25T12:51:50;14.90;99.90
39951;DHT22;25629;51.444;-2.606;2023-04-25T12:54:17;15.20;99.90
39951;DHT22;25629;51.444;-2.606;2023-04-25T12:56:42;15.70;99.90
39951;DHT22;25629;51.444;-2.606;2023-04-25T12:59:08;16.20;99.90
39951;DHT22;25629;51.444;-2.606;2023-04-25T13:01:34;17.20;99.90
39951;DHT22;25629;51.444;-2.606;2023-04-25T13:04:00;18.20;99.90
39951;DHT22;25629;51.444;-2.606;2023-04-25T13:06:26;19.40;99.90
39951;DHT22;25629;51.444;-2.606;2023-04-25T13:08:52;20.20;99.90
39951;DHT22;25629;51.444;-2.606;2023-04-25T13:11:18;20.90;99.90
39951;DHT22;25629;51.444;-2.606;2023-04-25T13:13:43;21.10;99.90
39951;DHT22;25629;51.444;-2.606;2023-04-25T13:16:09;20.50;99.90
39951;DHT22;25629;51.444;-2.606;2023-04-25T13:18:35;19.70;99.90
39951;DHT22;25629;51.444;-2.606;2023-04-25T13:21:00;19.10;99.90
39951;DHT22;25629;51.444;-2.606;2023-04-25T13:23:26;18.90;99.90
39951;DHT22;25629;51.444;-2.606;2023-04-25T13:25:52;18.70;99.90
39951;DHT22;25629;51.444;-2.606;2023-04-25T13:28:17;18.20;99.90
39951;DHT22;25629;51.444;-2.606;2023-04-25T13:30:43;18.10;99.90
39951;DHT22;25629;51.444;-2.606;2023-04-25T13:33:09;18.00;99.90
39951;DHT22;25629;51.444;-2.606;2023-04-25T13:35:36;17.70;99.90
39951;DHT22;25629;51.444;-2.606;2023-04-25T13:38:02;17.50;99.90
39951;DHT22;25629;51.444;-2.606;2023-04-25T13:40:28;17.20;99.90
39951;DHT22;25629;51.444;-2.606;2023-04-25T13:42:53;16.70;99.90
39951;DHT22;25629;51.444;-2.606;2023-04-25T13:45:19;16.30;99.90
39951;DHT22;25629;51.444;-2.606;2023-04-25T13:47:45;15.70;99.90
39951;DHT22;25629;51.444;-2.606;2023-04-25T13:50:11;15.40;99.90
39951;DHT22;25629;51.444;-2.606;2023-04-25T13:52:36;15.30;99.90
39951;DHT22;25629;51.444;-2.606;2023-04-25T13:55:02;15.50;99.90
39951;DHT22;25629;51.444;-2.606;2023-04-25T13:57:31;15.40;99.90
39951;DHT22;25629;51.444;-2.606;2023-04-25T14:00:03;16.60;99.90
39951;DHT22;25629;51.444;-2.606;2023-04-25T14:02:34;16.70;99.90
39951;DHT22;25629;51.444;-2.606;2023-04-25T14:05:00;16.40;99.90
39951;DHT22;25629;51.444;-2.606;2023-04-25T14:07:26;16.20;99.90
39951;DHT22;25629;51.444;-2.606;2023-04-25T14:09:52;16.30;99.90
39951;DHT22;25629;51.444;-2.606;2023-04-25T14:12:17;17.00;99.90
39951;DHT22;25629;51.444;-2.606;2023-04-25T14:14:43;17.60;99.90
39951;DHT22;25629;51.444;-2.606;2023-04-25T14:17:08;17.60;99.90
39951;DHT22;25629;51.444;-2.606;2023-04-25T14:19:34;17.60;99.90
39951;DHT22;25629;51.444;-2.606;2023-04-25T14:22:00;17.20;99.90
39951;DHT22;25629;51.444;-2.606;2023-04-25T14:24:25;18.20;99.90
39951;DHT22;25629;51.444;-2.606;2023-04-25T14:26:51;19.10;99.90
39951;DHT22;25629;51.444;-2.606;2023-04-25T14:29:17;18.80;99.90
39951;DHT22;25629;51.444;-2.606;2023-04-25T14:31:42;18.10;99.90
39951;DHT22;25629;51.444;-2.606;2023-04-25T14:34:08;17.60;99.90
39951;DHT22;25629;51.444;-2.606;2023-04-25T14:36:33;16.90;99.90
39951;DHT22;25629;51.444;-2.606;2023-04-25T14:38:59;16.40;99.90
39951;DHT22;25629;51.444;-2.606;2023-04-25T14:41:25;16.10;99.90
39951;DHT22;25629;51.444;-2.606;2023-04-25T14:43:51;16.00;99.90
39951;DHT22;25629;51.444;-2.606;2023-04-25T14:46:18;15.80;99.90
39951;DHT22;25629;51.444;-2.606;2023-04-25T14:48:43;15.50;99.90
39951;DHT22;25629;51.444;-2.606;2023-04-25T14:51:10;15.30;99.90
39951;DHT22;25629;51.444;-2.606;2023-04-25T14:53:36;15.10;99.90
39951;DHT22;25629;51.444;-2.606;2023-04-25T14:56:02;14.90;99.90
39951;DHT22;25629;51.444;-2.606;2023-04-25T14:58:27;14.80;99.90
39951;DHT22;25629;51.444;-2.606;2023-04-25T15:00:53;14.70;99.90
39951;DHT22;25629;51.444;-2.606;2023-04-25T15:03:18;14.90;99.90
39951;DHT22;25629;51.444;-2.606;2023-04-25T15:05:44;15.10;99.90
39951;DHT22;25629;51.444;-2.606;2023-04-25T15:08:10;15.10;99.90
39951;DHT22;25629;51.444;-2.606;2023-04-25T15:10:35;15.40;99.90
39951;DHT22;25629;51.444;-2.606;2023-04-25T15:13:01;15.50;99.90
39951;DHT22;25629;51.444;-2.606;2023-04-25T15:15:27;15.80;99.90
39951;DHT22;25629;51.444;-2.606;2023-04-25T15:17:52;15.80;99.90
39951;DHT22;25629;51.444;-2.606;2023-04-25T15:20:20;15.90;99.90
39951;DHT22;25629;51.444;-2.606;2023-04-25T15:22:45;16.00;99.90
39951;DHT22;25629;51.444;-2.606;2023-04-25T15:25:14;16.30;99.90
39951;DHT22;25629;51.444;-2.606;2023-04-25T15:27:41;16.70;99.90
39951;DHT22;25629;51.444;-2.606;2023-04-25T15:30:09;17.10;99.90